Time;durP1;ratioP1;P1;durP2;ratioP2;P2;SDS_P1;SDS_P2;PMS_P1;PMS_P2;Temp;Humidity;BMP_temperature;BMP_pressure;BME280_temperature;BME280_humidity;BME280_pressure;Samples;Min_cycle;Max_cycle;Signal;HPM_P1;HPM_P2
2023/05/12 00:01:32;;;;;;;10.40;6.22;;;;;;;16.69;62.69;101513.50;5049648;27;109205;-64
2023/05/12 00:03:59;;;;;;;10.18;6.00;;;;;;;16.67;62.77;101515.38;5052159;27;109158;-64
2023/05/12 00:06:27;;;;;;;8.82;6.40;;;;;;;16.64;62.70;101508.41;5049682;27;124352;-64
2023/05/12 00:08:54;;;;;;;10.02;6.05;;;;;;;16.61;62.65;101507.72;5047616;27;122731;-64
2023/05/12 00:11:21;;;;;;;8.82;6.38;;;;;;;16.59;62.81;101506.94;5042477;27;108257;-63
2023/05/12 00:13:48;;;;;;;12.40;6.43;;;;;;;16.57;62.68;101508.84;5050710;27;108783;-63
2023/05/12 00:16:17;;;;;;;11.27;6.57;;;;;;;16.55;62.55;101512.47;5048778;27;124794;-64
2023/05/12 00:18:44;;;;;;;11.10;6.93;;;;;;;16.52;62.82;101510.00;5049659;27;123715;-63
2023/05/12 00:21:12;;;;;;;9.07;6.70;;;;;;;16.48;62.68;101500.44;5050856;27;108278;-63
2023/05/12 00:23:39;;;;;;;9.88;6.80;;;;;;;16.46;62.60;101513.03;5051880;27;109050;-63
2023/05/12 00:26:06;;;;;;;9.95;6.90;;;;;;;16.43;62.65;101507.00;5049459;27;124041;-64
2023/05/12 00:28:34;;;;;;;10.63;6.95;;;;;;;16.41;62.79;101504.44;5047687;27;124251;-63
2023/05/12 00:31:02;;;;;;;15.32;7.60;;;;;;;16.39;62.78;101494.75;5051422;27;109105;-63
2023/05/12 00:33:30;;;;;;;11.82;7.30;;;;;;;16.36;62.86;101501.16;5046352;27;109885;-63
2023/05/12 00:35:59;;;;;;;10.45;7.05;;;;;;;16.36;62.93;101493.13;5044672;27;124374;-63
2023/05/12 00:38:26;;;;;;;11.05;6.97;;;;;;;16.33;62.93;101501.31;5046334;27;124092;-63
2023/05/12 00:40:54;;;;;;;10.20;7.10;;;;;;;16.31;62.96;101492.53;5049611;27;109371;-63
2023/05/12 00:43:21;;;;;;;13.68;7.65;;;;;;;16.28;63.00;101508.78;5050769;27;108852;-63
2023/05/12 00:45:48;;;;;;;12.00;8.20;;;;;;;16.25;63.15;101493.75;5051077;27;125314;-63
2023/05/12 00:48:15;;;;;;;14.35;8.27;;;;;;;16.24;63.14;101501.88;5049401;27;123104;-63
2023/05/12 00:50:43;;;;;;;13.32;8.15;;;;;;;16.20;63.05;101494.97;5046682;27;108349;-63
2023/05/12 00:53:11;;;;;;;9.98;7.57;;;;;;;16.19;63.13;101490.59;5036948;27;108654;-64
2023/05/12 00:55:38;;;;;;;13.48;8.23;;;;;;;16.15;62.92;101488.09;5052369;27;123347;-63
2023/05/12 00:58:06;;;;;;;10.95;7.32;;;;;;;16.10;63.08;101483.97;5054258;27;124259;-64
2023/05/12 01:00:35;;;;;;;10.48;7.00;;;;;;;16.06;63.09;101483.28;5055225;27;109419;-63
2023/05/12 01:03:03;;;;;;;9.95;7.20;;;;;;;16.03;63.12;101483.47;5052672;27;108211;-63
2023/05/12 01:05:38;;;;;;;10.57;7.30;;;;;;;16.00;63.10;101478.28;5053786;27;123757;-63
2023/05/12 01:08:05;;;;;;;11.67;7.10;;;;;;;15.96;63.21;101479.44;5069490;27;123420;-63
2023/05/12 01:10:33;;;;;;;10.02;6.90;;;;;;;15.94;63.21;101476.00;5054651;27;108618;-64
2023/05/12 01:13:00;;;;;;;11.68;7.35;;;;;;;15.92;63.38;101480.56;5051522;27;109184;-64
2023/05/12 01:15:31;;;;;;;9.90;7.25;;;;;;;15.90;63.50;101482.47;5060411;27;123427;-64
2023/05/12 01:18:01;;;;;;;9.30;6.70;;;;;;;15.90;63.25;101479.78;5054234;27;123228;-64
2023/05/12 01:20:30;;;;;;;9.68;6.55;;;;;;;15.89;63.29;101470.03;5049398;27;110630;-64
2023/05/12 01:22:58;;;;;;;10.80;6.88;;;;;;;15.88;63.47;101476.31;5051357;27;109209;-64
2023/05/12 01:25:31;;;;;;;10.43;7.10;;;;;;;15.87;63.50;101471.94;5053778;27;123225;-64
2023/05/12 01:28:01;;;;;;;10.60;6.60;;;;;;;15.85;63.54;101468.50;5051814;27;124100;-64
2023/05/12 01:30:31;;;;;;;10.50;6.75;;;;;;;15.83;63.45;101465.06;5053297;27;108375;-64
2023/05/12 01:32:58;;;;;;;8.82;6.25;;;;;;;15.80;63.57;101467.88;5053859;27;108312;-64
2023/05/12 01:35:25;;;;;;;9.68;7.10;;;;;;;15.78;63.62;101457.28;5050421;27;124303;-64
2023/05/12 01:38:01;;;;;;;10.77;7.45;;;;;;;15.76;63.58;101454.72;5051143;27;123361;-64
2023/05/12 01:40:29;;;;;;;10.55;7.13;;;;;;;15.73;63.63;101460.22;5053398;27;108302;-64
2023/05/12 01:42:57;;;;;;;9.23;6.80;;;;;;;15.72;63.68;101457.63;5051191;27;108360;-64
2023/05/12 01:45:28;;;;;;;11.15;7.05;;;;;;;15.70;63.83;101455.03;5052316;27;123141;-63
2023/05/12 01:47:55;;;;;;;8.55;6.30;;;;;;;15.70;63.75;101455.03;5033517;27;123904;-64
2023/05/12 01:50:22;;;;;;;7.93;5.97;;;;;;;15.68;63.73;101456.94;5053841;27;109459;-64
2023/05/12 01:52:49;;;;;;;8.05;5.88;;;;;;;15.68;63.95;101459.59;5050960;27;109655;-64
2023/05/12 01:55:18;;;;;;;8.20;5.40;;;;;;;15.66;63.95;101453.47;5050844;27;123306;-63
2023/05/12 01:57:52;;;;;;;6.43;4.55;;;;;;;15.65;63.76;101451.78;5048384;27;122952;-63
2023/05/12 02:00:20;;;;;;;7.20;5.30;;;;;;;15.63;63.85;101452.78;5053621;27;108395;-64
2023/05/12 02:02:50;;;;;;;6.60;5.13;;;;;;;15.60;63.79;101445.81;5053956;27;107393;-64
2023/05/12 02:05:17;;;;;;;7.15;4.90;;;;;;;15.58;63.98;101445.06;5049264;27;124752;-65
2023/05/12 02:07:48;;;;;;;8.32;5.40;;;;;;;15.57;64.04;101437.97;5046874;27;122846;-65
2023/05/12 02:10:16;;;;;;;6.75;4.60;;;;;;;15.56;64.11;101446.97;5052419;27;109577;-64
2023/05/12 02:12:44;;;;;;;7.20;5.10;;;;;;;15.56;64.10;101444.28;5053669;27;109417;-65
2023/05/12 02:15:11;;;;;;;5.85;4.40;;;;;;;15.55;64.31;101439.88;5062915;27;123177;-64
2023/05/12 02:17:43;;;;;;;6.80;4.25;;;;;;;15.54;64.21;101448.84;5050707;27;123164;-64
2023/05/12 02:20:11;;;;;;;5.40;3.72;;;;;;;15.55;64.22;101445.22;5053070;27;108721;-65
2023/05/12 02:22:39;;;;;;;5.72;3.80;;;;;;;15.56;64.27;101430.94;5049645;27;108944;-65
2023/05/12 02:25:06;;;;;;;5.13;3.80;;;;;;;15.56;64.08;101436.28;5048772;27;124615;-65
2023/05/12 02:27:34;;;;;;;8.52;4.07;;;;;;;15.55;64.29;101434.53;5053493;27;123067;-65
2023/05/12 02:30:03;;;;;;;4.95;3.60;;;;;;;15.54;64.30;101432.84;5053591;27;109631;-64
2023/05/12 02:32:32;;;;;;;4.43;3.25;;;;;;;15.52;64.08;101429.34;5051891;27;107969;-64
2023/05/12 02:34:59;;;;;;;5.78;3.50;;;;;;;15.52;64.27;101424.03;5048203;27;122153;-64
2023/05/12 02:37:27;;;;;;;5.43;3.30;;;;;;;15.53;64.26;101420.41;5050005;27;123084;-65
2023/05/12 02:39:54;;;;;;;6.20;3.88;;;;;;;15.51;64.48;101416.97;5053663;27;108817;-65
2023/05/12 02:42:22;;;;;;;6.25;3.67;;;;;;;15.50;64.32;101416.13;5046626;27;109154;-64
2023/05/12 02:44:50;;;;;;;7.72;4.13;;;;;;;15.51;64.39;101416.97;5048531;27;124075;-64
2023/05/12 02:47:17;;;;;;;6.40;4.03;;;;;;;15.50;64.54;101415.25;5049518;27;123022;-64
2023/05/12 02:49:44;;;;;;;7.07;4.32;;;;;;;15.53;64.63;101420.41;5049046;27;108346;-64
2023/05/12 02:52:15;;;;;;;9.02;4.40;;;;;;;15.52;64.54;101403.53;5049027;27;108280;-65
2023/05/12 02:54:42;;;;;;;8.88;4.90;;;;;;;15.53;64.57;101415.06;5052574;27;124376;-64
2023/05/12 02:57:10;;;;;;;8.40;5.13;;;;;;;15.54;64.69;101411.47;5049169;27;124646;-64
2023/05/12 02:59:37;;;;;;;9.35;5.50;;;;;;;15.54;64.60;101416.81;5049544;27;109877;-64
2023/05/12 03:02:04;;;;;;;9.02;5.50;;;;;;;15.54;64.82;101411.47;5050173;27;110197;-64
2023/05/12 03:04:32;;;;;;;11.80;6.93;;;;;;;15.54;64.72;101407.00;5046937;27;124659;-64
2023/05/12 03:06:59;;;;;;;13.13;6.68;;;;;;;15.54;64.88;101409.66;5050292;27;123365;-64
2023/05/12 03:09:27;;;;;;;13.73;7.60;;;;;;;15.54;65.00;101408.81;5047145;27;108292;-65
2023/05/12 03:11:54;;;;;;;16.75;9.23;;;;;;;15.55;64.85;101407.84;5052859;27;108322;-64
2023/05/12 03:14:21;;;;;;;15.88;9.05;;;;;;;15.54;65.06;101406.13;5048362;27;123918;-64
2023/05/12 03:16:48;;;;;;;17.05;9.00;;;;;;;15.54;64.98;101400.78;5050264;27;123041;-64
2023/05/12 03:19:16;;;;;;;16.55;9.13;;;;;;;15.56;65.12;101404.22;5049912;27;108644;-64
2023/05/12 03:21:43;;;;;;;19.83;10.35;;;;;;;15.56;65.15;101398.91;5053069;27;108300;-64
2023/05/12 03:24:10;;;;;;;19.70;10.55;;;;;;;15.57;65.36;101400.59;5050945;27;123138;-64
2023/05/12 03:26:37;;;;;;;19.08;11.38;;;;;;;15.58;65.32;101397.00;5049114;27;122883;-64
2023/05/12 03:29:05;;;;;;;21.52;10.57;;;;;;;15.58;65.49;101391.66;5051695;27;108489;-64
2023/05/12 03:31:32;;;;;;;21.95;11.98;;;;;;;15.59;65.37;101393.34;5048181;27;110859;-64
2023/05/12 03:34:00;;;;;;;24.50;12.77;;;;;;;15.61;65.47;101386.13;5049113;27;123311;-64
2023/05/12 03:36:27;;;;;;;23.48;12.52;;;;;;;15.62;65.51;101387.84;5049746;27;123526;-65
2023/05/12 03:38:55;;;;;;;27.80;13.98;;;;;;;15.63;65.64;101389.56;5035095;27;108326;-64
2023/05/12 03:41:23;;;;;;;24.92;13.40;;;;;;;15.64;65.56;101390.44;5052055;27;109534;-65
2023/05/12 03:43:50;;;;;;;27.02;13.73;;;;;;;15.64;65.67;101396.63;5050816;27;123499;-64
2023/05/12 03:46:17;;;;;;;26.38;13.60;;;;;;;15.63;65.67;101389.56;5047914;27;124289;-64
2023/05/12 03:48:45;;;;;;;26.98;14.27;;;;;;;15.66;65.68;101380.53;5050613;27;110348;-64
2023/05/12 03:51:13;;;;;;;31.40;14.68;;;;;;;15.67;65.86;101391.13;5047669;27;109631;-65
2023/05/12 03:53:44;;;;;;;30.75;14.43;;;;;;;15.68;65.75;101387.50;5045013;27;123824;-65
2023/05/12 03:56:12;;;;;;;31.73;14.13;;;;;;;15.68;65.77;101387.50;5046934;27;124063;-64
2023/05/12 03:58:39;;;;;;;28.30;15.05;;;;;;;15.69;65.89;101378.53;5048492;27;108111;-64
2023/05/12 04:01:07;;;;;;;30.17;16.15;;;;;;;15.71;65.84;101387.31;5049216;27;109012;-64
2023/05/12 04:03:34;;;;;;;35.60;16.83;;;;;;;15.71;66.03;101387.31;5047585;27;122437;-64
2023/05/12 04:06:03;;;;;;;34.72;17.30;;;;;;;15.71;66.00;101382.00;5032172;27;122910;-64
2023/05/12 04:08:30;;;;;;;36.00;17.05;;;;;;;15.72;66.08;101383.69;5051779;27;108493;-64
2023/05/12 04:10:59;;;;;;;33.67;16.50;;;;;;;15.73;66.15;101388.13;5049973;27;110571;-65
2023/05/12 04:13:28;;;;;;;38.72;18.05;;;;;;;15.74;66.12;101381.81;5050993;27;123373;-64
2023/05/12 04:15:56;;;;;;;32.78;17.90;;;;;;;15.77;66.05;101380.81;5043880;27;125318;-64
2023/05/12 04:18:25;;;;;;;36.72;19.92;;;;;;;15.79;66.19;101388.72;5053274;27;108507;-63
2023/05/12 04:20:53;;;;;;;36.60;18.65;;;;;;;15.81;66.11;101389.50;5051961;27;109779;-64
2023/05/12 04:23:21;;;;;;;38.00;19.67;;;;;;;15.80;66.15;101385.09;5050485;27;123264;-64
2023/05/12 04:25:48;;;;;;;38.08;19.20;;;;;;;15.84;66.39;101391.97;5051399;27;123850;-63
2023/05/12 04:28:16;;;;;;;39.15;19.17;;;;;;;15.85;66.43;101393.72;5048926;27;109894;-63
2023/05/12 04:30:43;;;;;;;37.45;19.23;;;;;;;15.88;66.36;101388.16;5046688;27;110337;-63
2023/05/12 04:33:10;;;;;;;38.45;18.98;;;;;;;15.92;66.43;101389.72;5054132;27;124661;-63
2023/05/12 04:35:39;;;;;;;38.80;20.20;;;;;;;15.96;66.52;101385.91;5054027;27;123061;-63
2023/05/12 04:38:07;;;;;;;38.13;19.80;;;;;;;15.97;66.37;101395.63;5054482;27;109750;-63
2023/05/12 04:40:35;;;;;;;39.22;20.02;;;;;;;16.00;66.32;101387.44;5051623;27;109151;-64
2023/05/12 04:43:03;;;;;;;37.90;20.25;;;;;;;16.03;66.37;101392.63;5050949;27;123254;-63
2023/05/12 04:45:31;;;;;;;35.83;20.05;;;;;;;16.04;66.38;101391.66;5053092;27;123299;-63
2023/05/12 04:47:58;;;;;;;34.00;19.58;;;;;;;16.07;66.29;101393.31;5055078;27;108523;-63
2023/05/12 04:50:26;;;;;;;41.15;19.58;;;;;;;16.10;66.45;101404.66;5049636;27;110016;-63
2023/05/12 04:52:53;;;;;;;38.67;20.85;;;;;;;16.13;66.40;101404.47;5053583;27;124097;-63
2023/05/12 04:55:20;;;;;;;36.22;20.45;;;;;;;16.17;66.19;101405.16;5054274;27;122921;-63
2023/05/12 04:57:48;;;;;;;35.35;19.75;;;;;;;16.20;66.36;101409.44;5054548;27;109234;-63
2023/05/12 05:00:16;;;;;;;33.97;19.92;;;;;;;16.23;66.27;101414.63;5051804;27;108970;-63
2023/05/12 05:02:45;;;;;;;36.92;20.08;;;;;;;16.25;66.32;101418.06;5048701;27;123268;-63
2023/05/12 05:05:12;;;;;;;36.15;20.42;;;;;;;16.29;66.36;101420.47;5053353;27;123248;-63
2023/05/12 05:07:39;;;;;;;39.88;21.15;;;;;;;16.32;66.43;101419.44;5048038;27;109293;-63
2023/05/12 05:10:07;;;;;;;40.20;21.75;;;;;;;16.36;66.16;101423.63;5054261;27;109113;-64
2023/05/12 05:12:35;;;;;;;31.98;20.08;;;;;;;16.38;66.21;101435.09;5048222;27;124306;-62
2023/05/12 05:15:02;;;;;;;35.45;21.05;;;;;;;16.40;66.18;101438.53;5052396;27;123563;-62
2023/05/12 05:17:29;;;;;;;37.40;20.63;;;;;;;16.43;66.43;101438.34;5048502;27;114224;-63
2023/05/12 05:19:57;;;;;;;33.95;19.63;;;;;;;16.44;66.69;101440.06;5049540;27;113029;-63
2023/05/12 05:22:29;;;;;;;37.45;20.55;;;;;;;16.46;66.47;101446.19;5044622;27;123251;-63
2023/05/12 05:24:56;;;;;;;37.63;20.55;;;;;;;16.49;66.58;101450.50;5051272;27;123191;-63
2023/05/12 05:27:23;;;;;;;35.97;20.20;;;;;;;16.51;66.46;101454.78;5048714;27;114473;-63
2023/05/12 05:29:51;;;;;;;34.67;19.60;;;;;;;16.58;66.57;101457.09;5046718;27;114643;-62
2023/05/12 05:32:18;;;;;;;36.38;20.48;;;;;;;16.61;66.44;101456.91;5049293;27;124292;-63
2023/05/12 05:34:46;;;;;;;35.17;20.17;;;;;;;16.66;66.46;101465.50;5047556;27;123428;-63
2023/05/12 05:37:13;;;;;;;33.75;19.40;;;;;;;16.69;66.48;101468.00;5050379;27;114269;-63
2023/05/12 05:39:41;;;;;;;34.15;19.50;;;;;;;16.73;66.37;101458.84;5049376;27;113232;-63
2023/05/12 05:42:08;;;;;;;27.65;17.70;;;;;;;16.77;66.33;101463.06;5046995;27;123389;-65
2023/05/12 05:44:35;;;;;;;28.40;18.00;;;;;;;16.81;66.29;101459.22;5050868;27;124063;-64
2023/05/12 05:47:05;;;;;;;25.73;17.27;;;;;;;16.85;66.25;101476.00;5049427;27;114540;-65
2023/05/12 05:49:34;;;;;;;26.38;16.83;;;;;;;16.90;66.32;101480.09;5042283;27;113173;-64
2023/05/12 05:52:01;;;;;;;26.17;17.13;;;;;;;16.95;66.27;101476.28;5046966;27;123729;-63
2023/05/12 05:54:28;;;;;;;26.27;17.75;;;;;;;17.01;65.88;101481.25;5050435;27;123601;-65
2023/05/12 05:56:56;;;;;;;27.60;18.55;;;;;;;17.04;65.91;101492.63;5048303;27;113500;-64
2023/05/12 05:59:23;;;;;;;27.70;18.02;;;;;;;17.08;66.02;101493.28;5032030;27;113647;-65
2023/05/12 06:01:50;;;;;;;27.30;18.15;;;;;;;17.12;65.78;101489.47;5049609;27;125443;-63
2023/05/12 06:04:17;;;;;;;31.17;19.15;;;;;;;17.15;65.91;101494.63;5049983;27;123971;-63
2023/05/12 06:06:46;;;;;;;27.50;17.73;;;;;;;17.19;65.71;101501.50;5047320;27;113637;-63
2023/05/12 06:09:14;;;;;;;28.67;18.02;;;;;;;17.21;65.68;101504.94;5047282;27;113706;-63
2023/05/12 06:11:42;;;;;;;26.92;17.75;;;;;;;17.25;65.73;101506.50;5049907;27;124940;-63
2023/05/12 06:14:10;;;;;;;27.35;17.75;;;;;;;17.32;65.94;101517.69;5042953;27;123767;-65
2023/05/12 06:16:38;;;;;;;25.42;18.65;;;;;;;17.37;65.76;101514.72;5039692;27;115486;-65
2023/05/12 06:19:08;;;;;;;26.77;16.80;;;;;;;17.42;65.62;101523.31;5042779;27;114830;-65
2023/05/12 06:21:35;;;;;;;25.70;16.83;;;;;;;17.49;65.70;101521.97;5046807;27;123601;-63
2023/05/12 06:24:02;;;;;;;26.67;16.77;;;;;;;17.54;65.24;101527.91;5036655;27;124699;-63
2023/05/12 06:26:29;;;;;;;23.13;16.05;;;;;;;17.58;65.23;101525.91;5048827;27;113359;-64
2023/05/12 06:28:57;;;;;;;23.02;16.17;;;;;;;17.60;65.11;101538.22;5049958;27;114149;-63
2023/05/12 06:31:24;;;;;;;25.17;16.33;;;;;;;17.62;64.83;101528.25;5048114;27;123313;-63
2023/05/12 06:33:51;;;;;;;25.35;16.60;;;;;;;17.64;64.71;101536.22;5050601;27;123234;-63
2023/05/12 06:36:18;;;;;;;22.33;15.57;;;;;;;17.66;64.95;101535.13;5050783;27;114702;-63
2023/05/12 06:38:46;;;;;;;23.00;15.77;;;;;;;17.70;64.67;101544.69;5041799;27;114598;-64
2023/05/12 06:41:13;;;;;;;24.70;14.98;;;;;;;17.75;64.84;101540.88;5036878;27;123698;-64
2023/05/12 06:43:42;;;;;;;22.83;15.07;;;;;;;17.80;64.70;101549.47;5037292;27;123010;-63
2023/05/12 06:46:09;;;;;;;21.45;13.90;;;;;;;17.87;64.76;101553.50;5042306;27;114088;-63
2023/05/12 06:48:36;;;;;;;18.60;13.57;;;;;;;17.90;64.32;101556.00;5049982;27;114068;-62
2023/05/12 06:51:03;;;;;;;18.90;13.18;;;;;;;17.95;64.40;101564.63;5050556;27;123650;-63
2023/05/12 06:53:32;;;;;;;16.85;11.70;;;;;;;17.99;64.32;101560.78;5050062;27;123261;-62
2023/05/12 06:56:00;;;;;;;16.10;11.63;;;;;;;18.03;63.94;101567.66;5050869;27;113487;-64
2023/05/12 06:58:27;;;;;;;16.02;11.50;;;;;;;18.08;63.97;101573.59;5050427;27;113139;-63
2023/05/12 07:00:54;;;;;;;16.08;10.63;;;;;;;18.14;63.84;101572.31;5029157;27;123808;-63
2023/05/12 07:03:22;;;;;;;15.65;10.68;;;;;;;18.21;63.77;101575.44;5050913;27;123972;-63
2023/05/12 07:05:50;;;;;;;15.68;10.45;;;;;;;18.27;63.55;101575.03;5038488;27;115461;-63
2023/05/12 07:08:17;;;;;;;14.82;9.52;;;;;;;18.34;63.40;101571.00;5035153;27;114777;-66
2023/05/12 07:10:44;;;;;;;11.57;8.20;;;;;;;18.42;63.08;101571.38;5036314;27;123917;-65
2023/05/12 07:13:11;;;;;;;10.55;8.63;;;;;;;18.49;62.79;101575.31;5048618;27;124557;-64
2023/05/12 07:15:39;;;;;;;9.75;7.80;;;;;;;18.57;62.37;101571.28;5048441;27;114177;-64
2023/05/12 07:18:06;;;;;;;10.13;7.15;;;;;;;18.63;61.85;101573.56;5044042;27;113805;-65
2023/05/12 07:20:33;;;;;;;8.40;6.70;;;;;;;18.72;61.76;101578.28;5032759;27;124507;-64
2023/05/12 07:23:00;;;;;;;9.77;6.97;;;;;;;18.84;62.07;101574.81;5046449;27;123698;-65
2023/05/12 07:25:28;;;;;;;8.45;6.30;;;;;;;19.01;62.10;101586.22;5040952;27;114176;-65
2023/05/12 07:27:56;;;;;;;9.57;6.90;;;;;;;19.17;61.55;101581.50;5042323;27;113702;-63
2023/05/12 07:30:23;;;;;;;6.78;5.40;;;;;;;19.30;60.12;101580.66;5035339;27;124021;-63
2023/05/12 07:32:50;;;;;;;7.40;4.82;;;;;;;19.37;60.11;101565.81;5048271;27;124022;-65
2023/05/12 07:35:18;;;;;;;5.47;4.72;;;;;;;19.46;60.21;101570.56;5049001;27;114312;-65
2023/05/12 07:37:45;;;;;;;7.00;4.95;;;;;;;19.57;60.03;101578.72;5049201;27;113833;-65
2023/05/12 07:40:13;;;;;;;5.55;4.35;;;;;;;19.69;59.81;101581.50;5048704;27;123882;-65
2023/05/12 07:42:40;;;;;;;5.53;3.92;;;;;;;19.80;59.45;101584.28;5048969;27;124806;-66
2023/05/12 07:45:07;;;;;;;6.60;3.70;;;;;;;19.88;59.05;101573.84;5038778;27;114499;-65
2023/05/12 07:47:35;;;;;;;4.78;3.47;;;;;;;19.98;58.60;101577.56;5040997;27;113734;-65
2023/05/12 07:50:02;;;;;;;9.02;4.22;;;;;;;20.03;57.10;101586.16;5049233;27;123982;-65
2023/05/12 07:52:29;;;;;;;5.07;3.92;;;;;;;20.07;57.27;101581.41;5043192;27;124165;-65
2023/05/12 07:54:56;;;;;;;6.03;3.97;;;;;;;20.13;57.41;101585.47;5044478;27;115838;-65
2023/05/12 07:57:23;;;;;;;5.80;3.58;;;;;;;20.23;57.40;101589.22;5060520;27;114226;-65
2023/05/12 07:59:51;;;;;;;4.95;4.10;;;;;;;20.35;57.16;101590.13;5050882;27;123772;-65
2023/05/12 08:02:19;;;;;;;6.25;3.53;;;;;;;20.36;56.30;101592.72;5048349;27;123976;-66
2023/05/12 08:04:46;;;;;;;4.18;3.67;;;;;;;20.32;56.06;101601.97;5035762;27;113894;-65
2023/05/12 08:07:14;;;;;;;5.35;3.72;;;;;;;20.27;56.03;101588.03;5032281;27;113238;-65
2023/05/12 08:09:41;;;;;;;5.38;4.43;;;;;;;20.21;55.96;101594.72;5040638;27;124540;-65
2023/05/12 08:12:09;;;;;;;6.75;4.35;;;;;;;20.16;55.74;101612.16;5039888;27;123913;-65
2023/05/12 08:14:36;;;;;;;7.63;4.38;;;;;;;20.08;55.69;101614.53;5042182;27;114691;-64
2023/05/12 08:17:03;;;;;;;6.47;4.65;;;;;;;20.06;56.08;101616.47;5034171;27;114524;-65
2023/05/12 08:19:31;;;;;;;5.00;4.50;;;;;;;20.05;56.24;101622.84;5034249;27;124002;-65
2023/05/12 08:21:59;;;;;;;6.50;4.63;;;;;;;20.04;56.13;101613.88;5048827;27;124493;-64
2023/05/12 08:24:26;;;;;;;6.40;4.55;;;;;;;20.08;56.38;101611.84;5030236;27;113986;-64
2023/05/12 08:26:53;;;;;;;5.70;4.35;;;;;;;20.14;56.75;101619.47;5050210;27;113389;-65
2023/05/12 08:29:21;;;;;;;4.95;3.90;;;;;;;20.25;56.75;101622.25;5037230;27;124709;-65
2023/05/12 08:31:48;;;;;;;5.75;3.75;;;;;;;20.34;56.21;101626.94;5048995;27;122975;-65
2023/05/12 08:34:15;;;;;;;4.50;3.80;;;;;;;20.40;55.71;101615.72;5049254;27;114480;-64
2023/05/12 08:36:43;;;;;;;5.05;3.88;;;;;;;20.42;55.31;101619.16;5042397;27;114331;-64
2023/05/12 08:39:10;;;;;;;5.22;4.32;;;;;;;20.40;55.39;101623.78;5039439;27;124127;-65
2023/05/12 08:42:26;;;;;;;5.38;4.20;;;;;;;20.42;55.50;101624.53;5035796;27;122543;-64
2023/05/12 08:44:54;;;;;;;5.35;4.25;;;;;;;20.47;56.01;101623.34;5014422;27;115706;-65
2023/05/12 08:47:24;;;;;;;5.13;4.25;;;;;;;20.51;55.62;101628.38;5046104;27;114108;-65
2023/05/12 08:49:59;;;;;;;5.22;4.18;;;;;;;20.52;55.18;101631.94;5042432;27;124080;-65
2023/05/12 08:52:28;;;;;;;;;;;;;;;20.53;55.90;101641.72;5048137;27;123193;-65
2023/05/12 08:54:55;;;;;;;5.97;4.35;;;;;;;20.60;55.83;101637.63;5046063;27;115207;-65
2023/05/12 08:57:26;;;;;;;5.25;4.43;;;;;;;20.66;55.80;101631.78;5043927;27;114541;-65
2023/05/12 08:59:58;;;;;;;4.75;3.67;;;;;;;20.68;55.31;101646.00;5046077;27;124150;-65
2023/05/12 09:02:27;;;;;;;5.43;3.65;;;;;;;20.70;55.30;101638.66;5032989;27;124900;-64
2023/05/12 09:05:10;;;;;;;;;;;;;;;20.71;55.55;101640.38;5046311;27;114320;-64
2023/05/12 09:07:42;;;;;;;4.38;3.20;;;;;;;20.73;54.75;101638.41;5041880;27;113652;-64
2023/05/12 09:10:16;;;;;;;6.07;3.10;;;;;;;20.73;54.63;101643.78;5049345;27;124180;-64
2023/05/12 09:13:23;;;;;;;4.25;3.28;;;;;;;20.77;54.56;101650.66;5051028;27;123952;-65
2023/05/12 09:15:52;;;;;;;4.03;3.00;;;;;;;20.82;54.47;101641.41;5043958;27;114203;-64
2023/05/12 09:18:20;;;;;;;4.78;2.75;;;;;;;20.88;54.49;101640.94;5050181;27;114035;-64
2023/05/12 09:20:47;;;;;;;3.92;3.15;;;;;;;20.95;54.23;101652.97;5051936;27;122956;-64
2023/05/12 09:23:18;;;;;;;3.75;3.00;;;;;;;21.01;53.68;101652.47;5053823;27;122848;-65
2023/05/12 09:25:47;;;;;;;4.85;2.80;;;;;;;21.06;53.91;101650.31;5051325;27;114596;-64
2023/05/12 09:28:14;;;;;;;3.88;3.05;;;;;;;21.12;53.52;101644.44;5046576;27;113776;-65
2023/05/12 09:30:43;;;;;;;5.60;3.28;;;;;;;21.13;53.58;101651.53;5048235;27;123816;-64
2023/05/12 09:33:12;;;;;;;4.13;3.03;;;;;;;21.13;53.28;101646.13;5051562;27;123809;-64
2023/05/12 09:35:42;;;;;;;3.72;2.83;;;;;;;21.16;53.19;101655.84;5044220;27;115629;-65
2023/05/12 09:38:11;;;;;;;4.10;2.65;;;;;;;21.19;52.72;101661.84;5040579;27;114850;-65
2023/05/12 09:40:42;;;;;;;4.07;2.63;;;;;;;21.22;52.48;101654.50;5050862;27;123719;-65
2023/05/12 09:43:09;;;;;;;4.85;2.42;;;;;;;21.22;51.13;101654.50;5050247;27;124013;-64
2023/05/12 09:45:42;;;;;;;3.92;2.80;;;;;;;21.19;51.71;101667.25;5037751;27;114271;-65
2023/05/12 09:48:12;;;;;;;3.17;2.30;;;;;;;21.24;51.64;101669.56;5049185;27;113833;-65
2023/05/12 09:50:49;;;;;;;3.80;2.20;;;;;;;21.32;51.97;101671.66;5046412;27;124386;-65
2023/05/12 09:53:17;;;;;;;5.70;2.60;;;;;;;21.39;52.44;101667.53;5050777;27;124017;-65
2023/05/12 09:55:47;;;;;;;5.57;3.00;;;;;;;21.50;51.75;101664.88;5051681;27;113705;-65
2023/05/12 09:58:19;;;;;;;4.75;2.83;;;;;;;21.60;51.88;101666.84;5041073;27;114320;-65
2023/05/12 10:00:47;;;;;;;6.18;3.10;;;;;;;21.66;51.10;101669.94;5045185;27;124896;-65
2023/05/12 10:03:17;;;;;;;3.80;2.60;;;;;;;21.64;50.81;101665.63;5044710;27;123900;-65
2023/05/12 10:05:49;;;;;;;4.30;2.58;;;;;;;21.60;50.79;101661.47;5042980;27;114189;-65
2023/05/12 10:08:21;;;;;;;5.32;2.58;;;;;;;21.60;51.00;101664.16;5050277;27;113401;-65
2023/05/12 10:10:51;;;;;;;3.25;2.50;;;;;;;21.61;50.82;101665.91;5051952;27;123765;-65
2023/05/12 10:13:19;;;;;;;4.93;2.85;;;;;;;21.62;50.67;101673.84;5051833;27;124627;-65
2023/05/12 10:15:47;;;;;;;3.38;2.78;;;;;;;21.60;49.56;101674.94;5048552;27;114084;-65
2023/05/12 10:18:16;;;;;;;4.72;2.63;;;;;;;21.52;49.87;101673.69;5049874;27;114011;-65
2023/05/12 10:20:44;;;;;;;5.70;2.53;;;;;;;21.48;49.90;101669.53;5045601;27;124059;-65
2023/05/12 10:23:12;;;;;;;3.42;2.28;;;;;;;21.42;49.39;101672.69;5038247;27;124610;-65
2023/05/12 10:25:43;;;;;;;4.53;3.00;;;;;;;21.38;49.75;101676.59;5051880;27;115259;-65
2023/05/12 10:28:11;;;;;;;3.17;2.40;;;;;;;21.38;49.82;101682.84;5051465;27;114579;-65
2023/05/12 10:30:39;;;;;;;3.17;2.60;;;;;;;21.39;49.74;101684.53;5050097;27;124137;-66
2023/05/12 10:33:07;;;;;;;4.22;2.70;;;;;;;21.42;49.80;101683.47;5051010;27;123760;-65
2023/05/12 10:35:36;;;;;;;3.50;2.50;;;;;;;21.43;50.05;101695.94;5049525;27;114235;-65
2023/05/12 10:38:08;;;;;;;4.90;2.60;;;;;;;21.43;50.01;101689.72;5044266;27;114388;-66
2023/05/12 10:40:48;;;;;;;6.35;2.70;;;;;;;21.45;50.00;101693.16;5047770;27;124637;-67
2023/05/12 10:43:24;;;;;;;5.32;2.65;;;;;;;21.48;49.96;101687.56;5050692;27;123743;-67
2023/05/12 10:46:10;;;;;;;3.33;2.40;;;;;;;21.51;49.63;101693.56;5037652;27;114472;-66
2023/05/12 10:48:58;;;;;;;3.60;2.50;;;;;;;21.49;49.28;101684.75;5037128;27;113994;-66
2023/05/12 10:51:28;;;;;;;3.45;1.90;;;;;;;21.50;49.81;101686.44;5045081;27;124359;-67
2023/05/12 10:53:57;;;;;;;3.72;2.70;;;;;;;21.52;49.71;101692.56;5048936;27;124254;-67
2023/05/12 10:56:29;;;;;;;4.38;2.97;;;;;;;21.61;50.19;101682.06;5049167;27;115142;-67
2023/05/12 10:59:12;;;;;;;5.07;2.58;;;;;;;21.72;50.02;101696.41;5048730;27;114370;-67
2023/05/12 11:01:43;;;;;;;3.72;2.63;;;;;;;21.84;49.99;101694.56;5044272;27;124391;-67
2023/05/12 11:04:16;;;;;;;5.50;2.80;;;;;;;21.99;49.59;101702.44;5023255;28;123032;-67
2023/05/12 11:06:44;;;;;;;3.33;2.88;;;;;;;22.14;49.76;101690.41;5035584;27;114216;-67
2023/05/12 11:09:13;;;;;;;3.28;2.60;;;;;;;22.28;49.83;101698.28;5040561;27;114033;-67
2023/05/12 11:11:42;;;;;;;4.78;2.65;;;;;;;22.44;49.46;101692.50;5045975;27;124035;-67
2023/05/12 11:14:12;;;;;;;3.10;2.50;;;;;;;22.61;48.97;101691.09;5037390;27;124649;-66
2023/05/12 11:16:43;;;;;;;6.50;3.00;;;;;;;22.72;49.04;101682.97;5039455;27;115656;-67
2023/05/12 11:19:10;;;;;;;6.53;2.60;;;;;;;22.90;49.07;101687.81;5044889;27;115356;-68